Time;durP1;ratioP1;P1;durP2;ratioP2;P2;SDS_P1;SDS_P2;PMS_P1;PMS_P2;Temp;Humidity;BMP_temperature;BMP_pressure;BME280_temperature;BME280_humidity;BME280_pressure;Samples;Min_cycle;Max_cycle;Signal;HPM_P1;HPM_P2
2023/04/06 04:00:24;;;;;;;1.33;1.23;;;0.80;99.90;;;;;;5837968;23;20455;-72
2023/04/06 04:02:51;;;;;;;1.33;1.33;;;0.80;99.90;;;;;;4871866;29;20208;-70
2023/04/06 04:05:18;;;;;;;1.30;1.13;;;0.80;99.90;;;;;;4871697;29;20204;-68
2023/04/06 04:07:44;;;;;;;0.93;0.93;;;0.80;99.90;;;;;;4881244;29;20204;-69
2023/04/06 04:10:11;;;;;;;0.63;0.63;;;0.80;99.90;;;;;;4876934;29;20218;-70
2023/04/06 04:12:38;;;;;;;1.65;1.65;;;0.80;99.90;;;;;;4865940;29;20215;-69
2023/04/06 04:15:06;;;;;;;2.67;1.02;;;0.80;99.90;;;;;;4860203;29;20246;-69
2023/04/06 04:20:10;;;;;;;2.33;2.22;;;0.70;99.90;;;;;;4895006;29;20221;-68
2023/04/06 04:22:37;;;;;;;2.10;2.08;;;0.70;99.90;;;;;;4893809;29;20212;-69
2023/04/06 04:25:05;;;;;;;2.53;2.33;;;0.70;99.90;;;;;;4895461;29;20782;-69
2023/04/06 04:27:31;;;;;;;0.85;0.85;;;0.70;99.90;;;;;;4897055;29;20297;-69
2023/04/06 04:29:58;;;;;;;0.75;0.73;;;0.70;99.90;;;;;;4895241;29;20676;-70
2023/04/06 04:32:27;;;;;;;1.60;1.50;;;0.70;99.90;;;;;;4892646;29;20211;-69
2023/04/06 04:34:53;;;;;;;1.25;1.25;;;0.70;99.90;;;;;;4890475;29;20203;-70
2023/04/06 04:37:21;;;;;;;2.78;2.58;;;0.60;99.90;;;;;;4884006;29;20216;-70
2023/04/06 04:39:48;;;;;;;1.45;1.45;;;0.60;99.90;;;;;;4885539;29;20230;-69
2023/04/06 04:42:15;;;;;;;0.60;0.60;;;0.70;99.90;;;;;;4891898;29;20218;-69
2023/04/06 04:44:42;;;;;;;14.73;2.38;;;0.60;99.90;;;;;;4895035;29;20589;-69
2023/04/06 04:47:08;;;;;;;2.25;2.15;;;0.60;99.90;;;;;;4881304;29;20215;-70
2023/04/06 04:49:35;;;;;;;1.98;1.75;;;0.60;99.90;;;;;;4889171;29;20227;-68
2023/04/06 04:52:02;;;;;;;1.35;1.35;;;0.60;99.90;;;;;;4893444;29;20211;-69
2023/04/06 04:54:30;;;;;;;0.80;0.80;;;0.60;99.90;;;;;;4887463;29;20204;-68
2023/04/06 04:56:57;;;;;;;1.30;1.30;;;0.70;99.90;;;;;;4889509;29;20381;-70
2023/04/06 04:59:23;;;;;;;0.60;0.60;;;0.70;99.90;;;;;;4884133;29;20622;-70
2023/04/06 05:01:50;;;;;;;1.42;1.42;;;0.70;99.90;;;;;;4886761;29;20212;-69
2023/04/06 05:04:17;;;;;;;14.82;7.55;;;0.70;99.90;;;;;;4889582;29;20239;-69
2023/04/06 05:06:44;;;;;;;8.20;7.22;;;0.80;99.90;;;;;;4893911;29;20219;-69
2023/04/06 05:09:10;;;;;;;5.65;4.55;;;0.80;99.90;;;;;;4893466;29;20618;-69
2023/04/06 05:11:38;;;;;;;4.95;3.10;;;0.90;99.90;;;;;;4890550;29;20213;-69
2023/04/06 05:14:06;;;;;;;2.72;2.72;;;1.00;99.90;;;;;;4891839;29;20238;-70
2023/04/06 05:16:33;;;;;;;6.25;2.60;;;1.00;99.90;;;;;;4884806;29;20237;-69
2023/04/06 05:19:00;;;;;;;3.78;3.58;;;1.10;99.90;;;;;;4892112;29;20246;-70
2023/04/06 05:21:27;;;;;;;8.50;3.72;;;1.20;99.90;;;;;;4889518;29;20283;-69
2023/04/06 05:23:54;;;;;;;18.85;1.50;;;1.20;99.90;;;;;;4892061;29;20330;-70
2023/04/06 05:26:21;;;;;;;2.55;1.50;;;1.20;99.90;;;;;;4892049;29;20610;-69
2023/04/06 05:28:50;;;;;;;0.82;0.82;;;1.30;99.90;;;;;;4890553;29;20258;-69
2023/04/06 05:31:17;;;;;;;2.55;2.45;;;1.30;99.90;;;;;;4890638;29;20211;-70
2023/04/06 05:33:44;;;;;;;1.90;1.80;;;1.50;99.90;;;;;;4888681;29;20210;-70
2023/04/06 05:36:11;;;;;;;3.15;2.55;;;1.70;99.90;;;;;;4890731;29;20306;-68
2023/04/06 05:38:38;;;;;;;2.38;1.33;;;1.90;99.90;;;;;;4892538;29;20259;-69
2023/04/06 05:41:05;;;;;;;3.15;2.92;;;2.00;99.90;;;;;;4886385;29;20226;-69
2023/04/06 05:43:32;;;;;;;6.72;4.40;;;2.20;99.90;;;;;;4891719;29;20283;-69
2023/04/06 05:46:00;;;;;;;2.10;2.00;;;2.30;99.90;;;;;;4891946;29;20208;-69
2023/04/06 05:48:26;;;;;;;1.85;1.85;;;2.30;99.90;;;;;;4884056;29;20243;-68
2023/04/06 05:50:54;;;;;;;2.33;2.10;;;2.10;99.90;;;;;;4884268;29;20220;-70
2023/04/06 05:53:21;;;;;;;4.25;1.60;;;1.90;99.90;;;;;;4881737;29;20204;-71
2023/04/06 05:55:48;;;;;;;2.95;1.60;;;1.80;99.90;;;;;;4887975;29;20263;-71
2023/04/06 05:58:15;;;;;;;1.35;1.35;;;1.70;99.90;;;;;;4891620;29;20243;-70
2023/04/06 06:00:42;;;;;;;3.70;1.63;;;1.70;99.90;;;;;;4892122;29;20212;-69
2023/04/06 06:03:11;;;;;;;1.20;1.20;;;1.70;99.90;;;;;;4892123;29;20307;-70
2023/04/06 06:05:37;;;;;;;0.80;0.80;;;1.70;99.90;;;;;;4890406;29;20610;-69
2023/04/06 06:08:04;;;;;;;1.50;1.50;;;1.80;99.90;;;;;;4890992;29;20228;-70
2023/04/06 06:10:31;;;;;;;1.15;1.15;;;1.80;99.90;;;;;;4896982;29;20206;-69
2023/04/06 06:12:57;;;;;;;1.23;1.00;;;1.90;99.90;;;;;;4880555;29;20499;-69
2023/04/06 06:15:24;;;;;;;2.90;1.85;;;1.90;99.90;;;;;;4889648;29;20593;-69
2023/04/06 06:17:51;;;;;;;2.05;1.95;;;2.00;99.90;;;;;;4896760;29;20278;-70
2023/04/06 06:20:19;;;;;;;1.10;1.05;;;2.00;99.90;;;;;;4893495;29;20224;-71
2023/04/06 06:22:46;;;;;;;1.00;1.00;;;2.10;99.90;;;;;;4885318;29;20207;-70
2023/04/06 06:25:13;;;;;;;1.40;1.40;;;2.20;99.90;;;;;;4894962;29;20227;-70
2023/04/06 06:27:40;;;;;;;2.35;2.28;;;2.20;99.90;;;;;;4882738;29;20208;-70
2023/04/06 06:30:08;;;;;;;1.60;1.60;;;2.30;99.90;;;;;;4889099;29;20298;-69
2023/04/06 06:32:34;;;;;;;2.17;2.08;;;2.40;99.90;;;;;;4890061;29;20207;-70
2023/04/06 06:35:01;;;;;;;1.70;1.65;;;2.40;99.90;;;;;;4896318;29;20222;-69
2023/04/06 06:37:29;;;;;;;1.25;1.25;;;2.60;99.90;;;;;;4892254;29;20227;-69
2023/04/06 06:39:56;;;;;;;7.10;2.85;;;2.60;99.90;;;;;;4888170;29;20323;-68
2023/04/06 06:42:22;;;;;;;4.35;2.00;;;2.70;99.90;;;;;;4891087;29;20317;-70
2023/04/06 06:44:49;;;;;;;2.17;2.08;;;2.80;99.90;;;;;;4892933;29;20254;-70
2023/04/06 06:47:16;;;;;;;2.08;1.85;;;2.80;99.90;;;;;;4892403;29;20290;-70
2023/04/06 06:49:43;;;;;;;1.60;1.50;;;2.90;99.90;;;;;;4895424;29;20227;-69
2023/04/06 06:52:10;;;;;;;1.63;1.63;;;2.90;99.90;;;;;;4892116;29;20214;-69
2023/04/06 06:54:38;;;;;;;0.57;0.57;;;3.00;99.90;;;;;;4889683;29;20207;-68
2023/04/06 06:57:05;;;;;;;0.45;0.45;;;3.20;99.90;;;;;;4894816;29;20230;-69
2023/04/06 06:59:31;;;;;;;1.35;1.20;;;3.30;99.90;;;;;;4898247;29;20227;-69
2023/04/06 07:01:58;;;;;;;2.28;2.13;;;3.30;99.90;;;;;;4895400;29;20216;-69
2023/04/06 07:04:25;;;;;;;1.35;1.35;;;3.40;99.90;;;;;;4894663;29;20231;-69
2023/04/06 07:06:53;;;;;;;0.55;0.55;;;3.50;99.90;;;;;;4895616;29;20216;-69
2023/04/06 07:09:19;;;;;;;0.98;0.98;;;3.70;99.90;;;;;;4897448;29;20286;-69
2023/04/06 07:11:47;;;;;;;2.75;2.55;;;3.80;99.90;;;;;;4886728;29;20586;-69
2023/04/06 07:14:16;;;;;;;0.98;0.90;;;3.80;99.90;;;;;;4879369;29;20226;-69
2023/04/06 07:16:44;;;;;;;0.82;0.82;;;4.00;99.90;;;;;;4891088;29;20722;-69
2023/04/06 07:19:11;;;;;;;1.75;1.30;;;4.00;99.90;;;;;;4894119;29;20291;-69
2023/04/06 07:21:38;;;;;;;6.70;6.50;;;4.20;99.90;;;;;;4898052;29;20211;-69
2023/04/06 07:24:05;;;;;;;1.45;1.15;;;4.30;99.90;;;;;;4886786;29;20223;-70
2023/04/06 07:26:31;;;;;;;0.82;0.82;;;4.50;99.90;;;;;;4893877;29;20207;-69
2023/04/06 07:29:00;;;;;;;3.42;3.15;;;4.60;99.90;;;;;;4889958;29;20231;-70
2023/04/06 07:31:26;;;;;;;1.90;1.85;;;4.70;99.90;;;;;;4897252;29;20207;-69
2023/04/06 07:33:53;;;;;;;1.90;1.85;;;4.90;99.90;;;;;;4891294;29;20584;-69
2023/04/06 07:36:20;;;;;;;1.25;1.15;;;4.90;99.90;;;;;;4897655;29;20200;-70
2023/04/06 07:38:48;;;;;;;1.85;1.45;;;4.90;99.90;;;;;;4882743;29;20238;-70
2023/04/06 07:41:15;;;;;;;1.65;1.55;;;5.00;99.90;;;;;;4891408;29;20216;-70
2023/04/06 07:43:42;;;;;;;2.58;1.85;;;5.00;99.90;;;;;;4886536;29;20717;-70
2023/04/06 07:46:10;;;;;;;5.30;2.90;;;5.10;99.90;;;;;;4894680;29;20726;-70
2023/04/06 07:48:38;;;;;;;1.77;1.58;;;5.30;99.90;;;;;;4895776;29;20326;-69
2023/04/06 07:51:06;;;;;;;2.53;2.30;;;5.30;99.90;;;;;;4895336;29;20267;-69
2023/04/06 07:53:33;;;;;;;1.85;1.23;;;5.40;99.90;;;;;;4896345;29;21069;-68
2023/04/06 07:56:00;;;;;;;3.30;2.13;;;5.60;99.90;;;;;;4892342;29;20856;-69
2023/04/06 07:58:26;;;;;;;1.35;1.35;;;5.70;99.90;;;;;;4891081;29;20227;-69
2023/04/06 08:00:54;;;;;;;2.75;1.20;;;5.70;99.90;;;;;;4886549;29;20212;-69
2023/04/06 08:03:25;;;;;;;0.88;0.85;;;5.80;99.90;;;;;;4883180;29;20249;-69
2023/04/06 08:05:52;;;;;;;2.15;1.60;;;5.90;99.90;;;;;;4885844;29;20232;-69
2023/04/06 08:08:19;;;;;;;1.67;1.58;;;6.10;99.90;;;;;;4892658;29;20247;-69
2023/04/06 08:10:45;;;;;;;1.42;0.95;;;6.40;99.90;;;;;;4888145;29;20207;-69
2023/04/06 08:13:12;;;;;;;1.45;1.45;;;6.60;99.90;;;;;;4881945;29;20215;-69
2023/04/06 08:15:39;;;;;;;1.30;1.20;;;6.90;99.90;;;;;;4889625;29;20214;-69
2023/04/06 08:18:06;;;;;;;2.63;2.53;;;7.10;99.90;;;;;;4884946;29;20700;-69
2023/04/06 08:20:34;;;;;;;1.50;1.33;;;7.10;99.90;;;;;;4893343;29;20204;-69
2023/04/06 08:23:01;;;;;;;1.65;1.65;;;7.20;99.90;;;;;;4885238;29;20215;-69
2023/04/06 08:25:28;;;;;;;1.92;1.83;;;7.30;99.90;;;;;;4886262;29;20235;-70
2023/04/06 08:27:54;;;;;;;5.55;1.67;;;7.50;99.90;;;;;;4883651;29;20216;-69
2023/04/06 08:30:21;;;;;;;0.52;0.52;;;7.70;99.90;;;;;;4885581;29;20211;-69
2023/04/06 08:32:48;;;;;;;2.30;2.30;;;7.80;99.90;;;;;;4889051;29;20204;-69
2023/04/06 08:35:15;;;;;;;1.00;1.00;;;7.90;99.90;;;;;;4890669;29;20199;-70
2023/04/06 08:37:43;;;;;;;1.70;1.70;;;8.00;99.90;;;;;;4881691;29;20207;-70
2023/04/06 08:40:11;;;;;;;1.38;1.38;;;8.20;99.90;;;;;;4887091;29;20203;-70
2023/04/06 08:42:41;;;;;;;1.63;1.58;;;8.30;99.90;;;;;;4891010;29;20203;-69
2023/04/06 08:45:09;;;;;;;2.38;2.17;;;8.30;99.90;;;;;;4880308;29;20231;-69
2023/04/06 08:47:37;;;;;;;0.90;0.90;;;8.40;99.90;;;;;;4889200;29;20296;-69
2023/04/06 08:50:05;;;;;;;0.60;0.60;;;8.50;99.90;;;;;;4888540;29;20215;-69
2023/04/06 08:52:33;;;;;;;2.80;2.60;;;8.70;99.90;;;;;;4891112;29;20560;-68
2023/04/06 08:55:01;;;;;;;1.88;1.77;;;8.70;99.90;;;;;;4887610;29;20661;-69
2023/04/06 08:57:28;;;;;;;1.40;1.10;;;8.60;99.90;;;;;;4886160;29;20233;-68
2023/04/06 08:59:56;;;;;;;2.15;1.40;;;8.50;99.90;;;;;;4888044;29;20231;-68
2023/04/06 09:02:22;;;;;;;1.98;1.90;;;8.60;99.10;;;;;;4887769;29;20217;-70
2023/04/06 09:04:53;;;;;;;4.45;2.40;;;8.70;99.00;;;;;;4891051;29;20751;-69
2023/04/06 09:07:19;;;;;;;2.70;2.50;;;8.80;98.00;;;;;;4883535;29;20216;-68
2023/04/06 09:09:48;;;;;;;1.50;1.40;;;8.80;97.70;;;;;;4886236;29;20258;-69
2023/04/06 09:12:25;;;;;;;1.50;1.40;;;8.90;97.60;;;;;;4880686;29;20211;-69
2023/04/06 09:14:52;;;;;;;1.50;1.30;;;9.00;96.30;;;;;;4888755;29;20226;-69
2023/04/06 09:17:22;;;;;;;1.85;1.85;;;9.10;96.00;;;;;;4888937;29;20295;-67
2023/04/06 09:19:49;;;;;;;2.13;2.13;;;9.20;95.20;;;;;;4886828;29;20577;-68
2023/04/06 09:22:16;;;;;;;1.30;1.20;;;9.20;95.00;;;;;;4895172;29;20207;-69
2023/04/06 09:24:46;;;;;;;1.63;1.52;;;9.10;95.20;;;;;;4887363;29;20211;-69
2023/04/06 09:27:13;;;;;;;1.60;1.42;;;9.00;94.80;;;;;;4895698;29;20209;-70
2023/04/06 09:29:41;;;;;;;1.83;1.75;;;9.20;94.40;;;;;;4895984;29;20231;-69
2023/04/06 09:32:10;;;;;;;0.93;0.80;;;9.30;94.60;;;;;;4890033;29;20221;-68
2023/04/06 09:34:38;;;;;;;1.90;1.80;;;9.30;94.30;;;;;;4894465;29;20203;-69
2023/04/06 09:37:13;;;;;;;1.75;1.75;;;9.40;94.50;;;;;;4894865;29;20215;-69
2023/04/06 09:39:40;;;;;;;1.77;1.67;;;9.50;94.60;;;;;;4894760;29;20721;-69
2023/04/06 09:42:07;;;;;;;2.13;1.45;;;9.60;94.50;;;;;;4893208;29;20215;-69
2023/04/06 09:44:34;;;;;;;4.30;2.03;;;9.70;94.50;;;;;;4898735;29;20219;-70
2023/04/06 09:47:07;;;;;;;3.20;2.88;;;9.70;94.60;;;;;;4899361;29;20211;-70
2023/04/06 09:49:35;;;;;;;2.85;2.63;;;9.70;94.60;;;;;;4895924;29;20231;-69
2023/04/06 09:52:04;;;;;;;3.00;2.50;;;9.70;93.50;;;;;;4899687;29;20287;-68
2023/04/06 09:54:32;;;;;;;1.70;1.67;;;9.90;93.30;;;;;;4898754;29;20215;-68
2023/04/06 09:57:12;;;;;;;1.75;1.65;;;9.90;93.40;;;;;;4889490;29;20207;-68
2023/04/06 09:59:43;;;;;;;4.57;3.20;;;9.80;93.70;;;;;;4892925;29;20640;-67
2023/04/06 10:02:22;;;;;;;1.55;1.45;;;9.90;93.30;;;;;;4898805;29;20699;-68
2023/04/06 10:04:54;;;;;;;4.22;2.75;;;10.10;92.90;;;;;;4898353;29;20210;-69
2023/04/06 10:07:21;;;;;;;2.20;2.20;;;10.30;92.60;;;;;;4898759;29;20215;-68
2023/04/06 10:09:49;;;;;;;2.10;1.90;;;10.40;92.40;;;;;;4893562;29;20235;-67
2023/04/06 10:12:17;;;;;;;3.55;2.30;;;10.30;92.40;;;;;;4898583;29;20207;-69
2023/04/06 10:14:45;;;;;;;1.85;1.75;;;10.30;92.20;;;;;;4898226;29;20223;-69
2023/04/06 10:17:13;;;;;;;2.35;1.95;;;10.30;92.30;;;;;;4895345;29;20208;-68
2023/04/06 10:19:48;;;;;;;3.38;2.47;;;10.30;92.50;;;;;;4935159;23;20732;-70
2023/04/06 10:22:24;;;;;;;0.80;0.80;;;10.40;92.90;;;;;;4935855;29;20673;-69
2023/04/06 10:24:51;;;;;;;2.22;2.13;;;10.60;92.00;;;;;;4929014;29;20289;-69
2023/04/06 10:27:28;;;;;;;2.38;2.22;;;10.60;92.30;;;;;;4921284;29;20213;-70
2023/04/06 10:30:01;;;;;;;2.10;1.58;;;10.60;91.50;;;;;;4925121;29;20230;-71
2023/04/06 10:32:37;;;;;;;1.40;1.38;;;10.60;91.60;;;;;;4916809;29;20718;-69
2023/04/06 10:35:09;;;;;;;1.85;1.75;;;10.70;92.20;;;;;;4916716;29;20209;-71
2023/04/06 10:37:53;;;;;;;4.15;3.15;;;10.80;91.60;;;;;;4917920;29;20232;-68
2023/04/06 10:40:22;;;;;;;2.15;1.27;;;10.80;91.40;;;;;;4912992;29;20250;-70
2023/04/06 10:42:49;;;;;;;1.85;1.10;;;10.80;91.00;;;;;;4935601;29;20209;-70
2023/04/06 10:45:24;;;;;;;1.58;1.58;;;10.90;91.00;;;;;;4935057;29;20236;-70
2023/04/06 10:47:54;;;;;;;2.78;2.58;;;11.00;91.00;;;;;;4935217;29;20252;-71
2023/04/06 10:50:21;;;;;;;1.75;1.23;;;11.00;91.10;;;;;;4924994;29;20274;-70
2023/04/06 10:52:48;;;;;;;1.02;1.00;;;11.10;91.30;;;;;;4921894;29;20218;-70
2023/04/06 10:55:16;;;;;;;2.30;2.20;;;11.00;90.30;;;;;;4924011;29;20199;-70
2023/04/06 10:57:43;;;;;;;1.77;1.75;;;11.10;89.70;;;;;;4916658;29;20612;-70
2023/04/06 11:00:12;;;;;;;2.58;2.47;;;11.10;90.00;;;;;;4922921;29;20245;-70
2023/04/06 11:02:39;;;;;;;2.83;1.95;;;11.10;89.80;;;;;;4915416;29;20222;-70
2023/04/06 11:05:08;;;;;;;3.78;2.28;;;11.10;89.20;;;;;;4924337;29;20202;-70
2023/04/06 11:07:35;;;;;;;2.50;2.03;;;11.10;90.10;;;;;;4935338;29;20221;-70
2023/04/06 11:10:01;;;;;;;2.78;2.38;;;11.00;89.50;;;;;;4935527;29;20226;-70
2023/04/06 11:12:30;;;;;;;2.92;2.25;;;11.10;90.10;;;;;;4935490;29;20214;-69
2023/04/06 11:15:01;;;;;;;1.38;1.38;;;11.10;90.10;;;;;;4934676;29;20679;-70
2023/04/06 11:17:29;;;;;;;1.20;1.20;;;11.10;89.60;;;;;;4924529;29;20261;-71
2023/04/06 11:19:56;;;;;;;2.78;2.67;;;11.20;89.70;;;;;;4920250;29;20241;-70
2023/04/06 11:22:24;;;;;;;2.63;2.42;;;11.30;88.20;;;;;;4916029;29;20211;-70
2023/04/06 11:24:51;;;;;;;2.55;2.45;;;11.30;90.10;;;;;;4915754;29;20246;-70
2023/04/06 11:27:18;;;;;;;2.92;2.67;;;11.30;88.80;;;;;;4916084;29;20230;-71
2023/04/06 11:29:46;;;;;;;3.10;1.98;;;11.30;89.10;;;;;;4915754;29;20238;-70
2023/04/06 11:32:21;;;;;;;8.40;3.13;;;11.40;87.50;;;;;;4925229;29;20207;-69
2023/04/06 11:34:49;;;;;;;4.65;2.15;;;11.30;88.50;;;;;;4935206;29;20312;-71
2023/04/06 11:37:16;;;;;;;2.60;2.40;;;11.40;88.80;;;;;;4935410;29;20293;-71
2023/04/06 11:39:49;;;;;;;2.35;2.15;;;11.40;88.70;;;;;;4925956;29;20318;-70
2023/04/06 11:42:23;;;;;;;2.90;2.72;;;11.60;88.50;;;;;;4912045;29;20666;-69
2023/04/06 11:44:52;;;;;;;2.13;2.13;;;11.60;87.70;;;;;;4916203;29;20201;-69
2023/04/06 11:47:22;;;;;;;1.38;1.33;;;11.60;87.50;;;;;;4924511;29;20237;-72
2023/04/06 11:49:50;;;;;;;3.20;2.63;;;11.70;86.90;;;;;;4916174;29;20230;-70
2023/04/06 11:52:18;;;;;;;5.20;3.28;;;11.70;86.90;;;;;;4915457;29;20242;-71
2023/04/06 11:54:47;;;;;;;3.65;3.28;;;11.70;87.10;;;;;;4915360;29;20217;-71
2023/04/06 11:57:13;;;;;;;2.00;1.75;;;11.70;87.40;;;;;;4918265;29;20255;-70
2023/04/06 11:59:40;;;;;;;3.78;3.47;;;11.80;88.40;;;;;;4931079;29;20261;-71
2023/04/06 12:02:07;;;;;;;3.90;3.45;;;11.90;87.10;;;;;;4920309;29;20286;-68
2023/04/06 12:04:34;;;;;;;3.15;2.95;;;11.90;89.30;;;;;;4918540;29;20235;-68
2023/04/06 12:07:01;;;;;;;1.67;1.58;;;12.00;88.90;;;;;;4917783;29;20237;-68
2023/04/06 12:09:28;;;;;;;3.00;2.67;;;12.10;87.60;;;;;;4919443;29;20234;-70
2023/04/06 12:11:56;;;;;;;1.53;1.53;;;12.00;87.30;;;;;;4919367;29;20218;-70
2023/04/06 12:14:24;;;;;;;4.13;3.83;;;12.20;86.80;;;;;;4931145;29;20493;-69
2023/04/06 12:16:51;;;;;;;4.68;3.13;;;12.10;88.00;;;;;;4916516;29;20206;-71
2023/04/06 12:19:18;;;;;;;3.05;2.88;;;12.10;87.00;;;;;;4918715;29;20238;-71
2023/04/06 12:21:44;;;;;;;2.97;2.67;;;12.20;88.00;;;;;;4914493;29;20206;-70
2023/04/06 12:24:11;;;;;;;3.83;3.40;;;12.30;88.70;;;;;;4911472;29;20490;-71
2023/04/06 12:26:38;;;;;;;5.53;3.30;;;12.10;86.70;;;;;;4912768;29;20517;-70
2023/04/06 12:29:07;;;;;;;3.23;3.03;;;12.20;89.50;;;;;;4920477;29;20509;-70
2023/04/06 12:31:36;;;;;;;2.63;2.40;;;12.40;88.10;;;;;;4917891;29;20484;-70
2023/04/06 12:34:03;;;;;;;5.27;2.97;;;12.40;87.00;;;;;;4921525;29;20886;-72
2023/04/06 12:36:30;;;;;;;3.50;3.03;;;12.40;89.10;;;;;;4919882;29;20939;-71
2023/04/06 12:38:57;;;;;;;3.20;3.00;;;12.40;88.70;;;;;;4913998;29;20991;-70
2023/04/06 12:41:24;;;;;;;4.07;3.87;;;12.20;88.20;;;;;;4909373;29;21035;-72
2023/04/06 12:43:51;;;;;;;5.00;4.50;;;12.20;88.40;;;;;;4912688;29;20894;-67
2023/04/06 12:46:20;;;;;;;2.50;2.17;;;12.30;88.90;;;;;;4921693;29;20585;-70
2023/04/06 12:48:47;;;;;;;3.63;3.30;;;12.40;88.70;;;;;;4924191;29;20550;-69
2023/04/06 12:51:14;;;;;;;2.77;2.57;;;12.40;87.60;;;;;;4916688;29;20486;-70
2023/04/06 12:53:41;;;;;;;3.37;3.13;;;12.50;87.50;;;;;;4918047;29;20477;-70
2023/04/06 12:56:13;;;;;;;6.00;4.00;;;12.40;88.20;;;;;;4916941;29;20887;-70
2023/04/06 12:58:41;;;;;;;6.57;1.90;;;12.30;88.10;;;;;;4909839;29;20470;-70
2023/04/06 13:01:08;;;;;;;3.93;2.67;;;12.40;86.60;;;;;;4914518;29;20471;-70
2023/04/06 13:03:36;;;;;;;4.07;2.23;;;12.50;87.70;;;;;;4913858;29;21206;-70
2023/04/06 13:06:03;;;;;;;3.23;3.03;;;12.50;86.40;;;;;;4913724;29;20490;-70
2023/04/06 13:08:30;;;;;;;3.43;3.30;;;12.40;86.30;;;;;;4926076;29;20471;-70
2023/04/06 13:10:57;;;;;;;3.47;3.17;;;12.40;87.20;;;;;;4914427;29;20490;-71
2023/04/06 13:13:26;;;;;;;2.77;2.50;;;12.60;87.20;;;;;;4913705;29;20971;-71
2023/04/06 13:15:52;;;;;;;2.53;2.33;;;12.70;87.50;;;;;;4914783;29;20480;-70
2023/04/06 13:18:20;;;;;;;3.40;3.20;;;12.70;87.10;;;;;;4917568;29;20474;-71
2023/04/06 13:20:49;;;;;;;5.47;3.83;;;12.60;86.00;;;;;;4916134;29;20470;-70
2023/04/06 13:23:15;;;;;;;3.57;3.37;;;12.70;86.10;;;;;;4914370;29;20805;-71
2023/04/06 13:25:42;;;;;;;2.93;2.70;;;12.60;85.70;;;;;;4908654;29;20469;-70
2023/04/06 13:28:10;;;;;;;7.00;3.93;;;12.50;86.50;;;;;;4911242;29;20575;-71
2023/04/06 13:30:37;;;;;;;6.93;3.93;;;12.50;86.20;;;;;;4919764;29;20581;-70
2023/04/06 13:33:04;;;;;;;2.33;1.70;;;12.60;85.20;;;;;;4907922;29;20940;-69
2023/04/06 13:35:31;;;;;;;3.20;2.80;;;12.80;86.00;;;;;;4920741;29;20466;-70
2023/04/06 13:37:59;;;;;;;2.80;1.70;;;12.80;86.00;;;;;;4923812;29;20786;-71
2023/04/06 13:40:26;;;;;;;2.37;2.27;;;12.70;85.40;;;;;;4915449;29;20536;-71
2023/04/06 13:42:52;;;;;;;2.90;2.70;;;12.70;85.30;;;;;;4923826;29;20473;-67
2023/04/06 13:45:19;;;;;;;2.57;2.47;;;12.80;85.80;;;;;;4903061;29;20810;-68
2023/04/06 13:47:46;;;;;;;3.30;3.07;;;12.80;85.50;;;;;;4907846;29;20561;-68
2023/04/06 13:50:13;;;;;;;2.50;2.40;;;12.80;86.30;;;;;;4914235;29;20501;-67
2023/04/06 13:52:39;;;;;;;4.73;3.87;;;12.80;85.10;;;;;;4915562;29;20482;-68
2023/04/06 13:55:08;;;;;;;2.70;2.50;;;12.80;85.80;;;;;;4914125;29;20466;-68
2023/04/06 13:57:35;;;;;;;3.60;3.37;;;12.90;85.30;;;;;;4913401;29;20466;-68
2023/04/06 14:00:02;;;;;;;6.10;3.77;;;13.00;85.20;;;;;;4913226;29;20494;-68
2023/04/06 14:02:29;;;;;;;3.27;2.97;;;13.10;84.60;;;;;;4912673;29;20553;-68
2023/04/06 14:04:56;;;;;;;2.73;2.63;;;12.90;84.30;;;;;;4902683;29;20558;-68
2023/04/06 14:07:23;;;;;;;3.00;2.80;;;12.90;84.90;;;;;;4911394;29;20911;-68
2023/04/06 14:09:49;;;;;;;3.93;3.00;;;13.00;85.80;;;;;;4916487;29;20494;-68
2023/04/06 14:12:17;;;;;;;3.00;2.80;;;13.00;86.00;;;;;;4913062;29;20470;-67
2023/04/06 14:14:44;;;;;;;6.13;4.50;;;13.00;84.60;;;;;;4915620;29;20465;-70
2023/04/06 14:17:11;;;;;;;4.17;3.87;;;13.00;85.50;;;;;;4922875;29;20459;-69
2023/04/06 14:19:37;;;;;;;3.40;3.27;;;13.00;85.10;;;;;;4920713;29;20501;-69
2023/04/06 14:22:04;;;;;;;2.47;2.30;;;13.10;86.10;;;;;;4912516;29;20477;-69
2023/04/06 14:24:31;;;;;;;5.50;3.70;;;13.10;84.00;;;;;;4917661;29;20469;-68
2023/04/06 14:26:58;;;;;;;5.37;3.00;;;13.10;84.00;;;;;;4920865;29;20506;-69
2023/04/06 14:29:26;;;;;;;4.97;3.13;;;13.10;84.10;;;;;;4923165;29;21190;-69
2023/04/06 14:31:59;;;;;;;4.27;3.97;;;13.10;84.10;;;;;;4922440;29;20470;-69
2023/04/06 14:34:26;;;;;;;3.50;3.20;;;13.10;84.80;;;;;;4917687;29;20516;-69
2023/04/06 14:36:52;;;;;;;3.30;3.20;;;13.20;84.60;;;;;;4909155;29;20467;-68
2023/04/06 14:39:19;;;;;;;2.63;2.50;;;13.10;83.80;;;;;;4909002;29;20489;-68
2023/04/06 14:41:47;;;;;;;3.00;2.90;;;13.00;84.60;;;;;;4910685;29;20493;-68
2023/04/06 14:44:14;;;;;;;1.80;1.70;;;13.10;85.10;;;;;;4914879;29;20498;-69
2023/04/06 14:46:42;;;;;;;4.80;3.47;;;13.20;83.10;;;;;;4913202;29;20541;-69
2023/04/06 14:49:09;;;;;;;4.77;2.90;;;13.20;82.60;;;;;;4912650;29;20497;-68
2023/04/06 14:51:36;;;;;;;3.20;2.63;;;13.10;82.80;;;;;;4912112;29;20478;-69
2023/04/06 14:54:03;;;;;;;2.63;2.53;;;13.00;83.20;;;;;;4915301;29;20462;-69
2023/04/06 14:56:31;;;;;;;3.23;3.03;;;13.00;83.70;;;;;;4911361;29;20993;-69
2023/04/06 14:58:59;;;;;;;4.20;3.90;;;13.00;84.10;;;;;;4923829;29;20478;-69
2023/04/06 15:01:26;;;;;;;6.03;3.90;;;13.10;84.30;;;;;;4914678;29;20558;-69
2023/04/06 15:03:54;;;;;;;2.90;2.80;;;13.00;84.30;;;;;;4923594;29;20466;-68
2023/04/06 15:06:21;;;;;;;2.93;2.40;;;13.00;83.70;;;;;;4926816;29;21011;-69
2023/04/06 15:08:49;;;;;;;3.60;3.00;;;13.00;85.30;;;;;;4917118;29;20589;-66
2023/04/06 15:11:16;;;;;;;2.70;2.60;;;13.00;83.50;;;;;;4923519;29;20477;-67
2023/04/06 15:13:43;;;;;;;4.63;4.33;;;13.00;83.10;;;;;;4924759;29;20478;-67
2023/04/06 15:16:10;;;;;;;1.87;1.77;;;13.00;83.60;;;;;;4911419;29;20936;-67
2023/04/06 15:18:36;;;;;;;3.07;2.87;;;13.00;84.60;;;;;;4919063;29;20991;-68
2023/04/06 15:21:04;;;;;;;4.27;3.87;;;13.00;84.20;;;;;;4926278;29;20474;-67
2023/04/06 15:23:32;;;;;;;3.97;3.43;;;13.00;82.60;;;;;;4914665;29;20473;-67
2023/04/06 15:25:59;;;;;;;1.63;1.53;;;13.00;83.80;;;;;;4917282;29;20814;-67
2023/04/06 15:28:26;;;;;;;2.40;2.30;;;13.00;83.70;;;;;;4926045;29;20481;-67
2023/04/06 15:30:54;;;;;;;3.73;3.33;;;13.00;83.00;;;;;;4917494;29;20470;-67
2023/04/06 15:33:22;;;;;;;5.23;2.40;;;13.00;84.00;;;;;;4921938;29;20504;-67
2023/04/06 15:35:49;;;;;;;5.33;3.93;;;12.90;83.00;;;;;;4911858;29;20527;-68
2023/04/06 15:38:17;;;;;;;3.57;3.43;;;12.90;82.80;;;;;;4923065;29;20459;-67
2023/04/06 15:40:45;;;;;;;3.53;3.33;;;12.90;82.80;;;;;;4901674;29;20487;-67
2023/04/06 15:43:12;;;;;;;3.40;2.93;;;12.80;83.30;;;;;;4912572;29;20486;-68
2023/04/06 15:45:40;;;;;;;4.37;2.80;;;12.90;84.80;;;;;;4909581;29;20471;-67
2023/04/06 15:48:07;;;;;;;2.70;2.50;;;12.90;84.20;;;;;;4915803;29;20502;-67
2023/04/06 15:50:34;;;;;;;2.83;2.63;;;12.80;84.40;;;;;;4914032;29;20510;-68
2023/04/06 15:53:01;;;;;;;3.90;3.67;;;12.80;84.20;;;;;;4922524;29;20537;-67
2023/04/06 15:55:29;;;;;;;3.27;3.07;;;12.80;84.50;;;;;;4909165;29;20473;-67
2023/04/06 15:57:56;;;;;;;2.43;2.33;;;12.90;84.80;;;;;;4909810;29;20585;-67
2023/04/06 16:00:24;;;;;;;3.37;3.20;;;12.90;83.50;;;;;;4914393;29;20870;-67
2023/04/06 16:02:50;;;;;;;4.63;3.67;;;12.80;83.50;;;;;;4922132;29;20904;-67
2023/04/06 16:05:17;;;;;;;4.50;3.00;;;12.80;84.10;;;;;;4917008;29;20470;-68
2023/04/06 16:07:44;;;;;;;2.20;2.10;;;12.80;83.70;;;;;;4921254;29;20229;-68
2023/04/06 16:10:11;;;;;;;2.33;2.23;;;12.70;84.00;;;;;;4918109;29;20491;-67
2023/04/06 16:12:41;;;;;;;4.03;3.70;;;12.70;84.60;;;;;;4921791;29;20477;-67
2023/04/06 16:15:08;;;;;;;6.00;3.60;;;12.70;85.30;;;;;;4925237;29;20502;-67
2023/04/06 16:17:35;;;;;;;5.27;4.07;;;12.70;84.80;;;;;;4916670;29;20484;-67
2023/04/06 16:20:03;;;;;;;3.03;2.73;;;12.70;85.80;;;;;;4920091;29;20495;-69
2023/04/06 16:22:31;;;;;;;3.90;3.57;;;12.70;85.70;;;;;;4917156;29;20966;-68
2023/04/06 16:24:57;;;;;;;2.50;2.40;;;12.70;87.00;;;;;;4919398;29;20463;-68
2023/04/06 16:27:24;;;;;;;3.27;2.97;;;12.60;85.50;;;;;;4921892;29;20498;-68
2023/04/06 16:29:52;;;;;;;4.73;3.73;;;12.60;85.30;;;;;;4920661;29;20497;-69
2023/04/06 16:32:19;;;;;;;2.80;2.60;;;12.60;85.50;;;;;;4914914;29;20463;-69
2023/04/06 16:34:46;;;;;;;4.03;3.60;;;12.50;86.00;;;;;;4921714;29;20462;-69
2023/04/06 16:37:13;;;;;;;4.65;3.92;;;12.50;86.50;;;;;;4911309;29;20574;-68
2023/04/06 16:39:40;;;;;;;4.13;3.33;;;12.50;85.40;;;;;;4906767;29;20590;-68
2023/04/06 16:42:06;;;;;;;3.20;3.00;;;12.40;85.70;;;;;;4909613;29;20238;-69
2023/04/06 16:44:33;;;;;;;2.75;2.65;;;12.40;85.70;;;;;;4909149;29;20470;-69
2023/04/06 16:47:01;;;;;;;1.73;1.63;;;12.30;85.60;;;;;;4913128;29;20210;-68
2023/04/06 16:49:28;;;;;;;4.13;3.42;;;12.20;84.50;;;;;;4907178;29;20489;-68
2023/04/06 16:51:55;;;;;;;3.03;2.80;;;12.20;85.60;;;;;;4908863;29;20241;-69
2023/04/06 16:54:22;;;;;;;6.15;3.53;;;12.10;85.90;;;;;;4911219;29;20462;-68